createdAt,value
2019-02-18T00:04:33.679Z,18.53
2019-02-18T00:07:14.964Z,19.83
2019-02-18T00:10:04.490Z,16.77
2019-02-18T00:12:48.216Z,17.77
2019-02-18T00:15:28.750Z,18.63
2019-02-18T00:18:10.902Z,28.57
2019-02-18T00:20:53.270Z,25.17
2019-02-18T00:23:35.086Z,22.83
2019-02-18T00:26:16.830Z,23.87
2019-02-18T00:28:58.514Z,23.00
2019-02-18T00:31:40.134Z,22.47
2019-02-18T00:34:21.871Z,22.27
2019-02-18T00:37:03.551Z,16.53
2019-02-18T00:39:45.791Z,16.87
2019-02-18T00:42:27.580Z,22.60
2019-02-18T00:45:09.273Z,16.03
2019-02-18T00:47:51.335Z,15.23
2019-02-18T00:50:33.927Z,13.77
2019-02-18T00:53:15.666Z,14.40
2019-02-18T00:55:57.431Z,15.93
2019-02-18T00:58:39.098Z,17.47
2019-02-18T01:01:21.034Z,13.43
2019-02-18T01:04:01.554Z,15.23
2019-02-18T01:06:50.914Z,15.30
2019-02-18T01:09:34.550Z,12.67
2019-02-18T01:12:16.242Z,11.37
2019-02-18T01:14:58.255Z,15.30
2019-02-18T01:17:40.272Z,16.87
2019-02-18T01:20:22.206Z,16.70
2019-02-18T01:23:04.306Z,14.47
2019-02-18T01:25:45.994Z,10.63
2019-02-18T01:28:28.074Z,14.17
2019-02-18T01:31:10.144Z,13.37
2019-02-18T01:33:52.363Z,15.63
2019-02-18T01:36:23.215Z,17.30
2019-02-18T01:39:22.671Z,15.93
2019-02-18T01:42:06.230Z,13.33
2019-02-18T01:44:48.441Z,18.73
2019-02-18T01:47:30.300Z,17.43
2019-02-18T01:50:12.483Z,15.60
2019-02-18T01:52:54.659Z,17.67
2019-02-18T01:55:36.923Z,15.20
2019-02-18T01:58:19.327Z,17.00
2019-02-18T02:01:01.958Z,17.40
2019-02-18T02:03:44.298Z,16.33
2019-02-18T02:06:26.042Z,18.20
2019-02-18T02:09:12.318Z,19.40
2019-02-18T02:11:54.514Z,15.90
2019-02-18T02:14:36.230Z,15.50
2019-02-18T02:17:18.374Z,12.87
2019-02-18T02:20:00.420Z,13.10
2019-02-18T02:22:42.107Z,17.40
2019-02-18T02:25:23.955Z,16.10
2019-02-18T02:28:06.050Z,16.47
2019-02-18T02:30:47.893Z,13.83
2019-02-18T02:33:30.172Z,15.70
2019-02-18T02:36:12.034Z,12.40
2019-02-18T02:38:42.411Z,15.20
2019-02-18T02:41:14.240Z,19.10
2019-02-18T02:43:58.201Z,15.97
2019-02-18T02:46:40.299Z,18.57
2019-02-18T02:49:22.675Z,17.37
2019-02-18T02:52:04.462Z,14.83
2019-02-18T02:54:46.255Z,18.07
2019-02-18T02:57:28.346Z,19.40
2019-02-18T03:00:10.336Z,17.33
2019-02-18T03:02:52.076Z,17.97
2019-02-18T03:05:34.642Z,14.07
2019-02-18T03:08:20.703Z,13.30
2019-02-18T03:11:00.871Z,15.13
2019-02-18T03:13:42.762Z,15.13
2019-02-18T03:16:13.140Z,15.33
2019-02-18T03:18:56.531Z,14.53
2019-02-18T03:21:38.898Z,12.47
2019-02-18T03:24:20.906Z,13.17
2019-02-18T03:26:51.351Z,14.87
2019-02-18T03:30:01.377Z,11.80
2019-02-18T03:32:45.465Z,13.90
2019-02-18T03:35:15.791Z,12.73
2019-02-18T03:38:06.670Z,13.10
2019-02-18T03:40:50.347Z,12.20
2019-02-18T03:43:32.578Z,11.53
2019-02-18T03:46:14.616Z,13.17
2019-02-18T03:48:56.903Z,11.87
2019-02-18T03:51:38.591Z,13.90
2019-02-18T03:54:20.565Z,12.37
2019-02-18T03:57:02.882Z,13.23
2019-02-18T03:59:44.964Z,16.50
2019-02-18T04:02:26.826Z,11.77
2019-02-18T04:05:08.795Z,14.30
2019-02-18T04:07:50.598Z,13.67
2019-02-18T04:10:21.057Z,13.40
2019-02-18T04:13:11.982Z,7.70
2019-02-18T04:15:43.851Z,7.07
2019-02-18T04:18:27.114Z,8.33
2019-02-18T04:20:57.490Z,8.03
2019-02-18T04:23:46.944Z,8.23
2019-02-18T04:26:30.595Z,10.80
2019-02-18T04:29:12.250Z,10.67
2019-02-18T04:31:54.098Z,6.80
2019-02-18T04:34:36.203Z,10.43
2019-02-18T04:37:20.544Z,11.80
2019-02-18T04:40:02.734Z,8.43
2019-02-18T04:42:44.806Z,12.77
2019-02-18T04:45:26.780Z,12.27
2019-02-18T04:48:08.793Z,12.23
2019-02-18T04:50:50.758Z,11.40
2019-02-18T04:53:33.334Z,11.77
2019-02-18T04:56:15.767Z,12.67
2019-02-18T04:58:57.599Z,9.53
2019-02-18T05:01:39.642Z,9.57
2019-02-18T05:04:21.477Z,10.93
2019-02-18T05:07:03.385Z,11.97
2019-02-18T05:09:45.119Z,14.47
2019-02-18T05:12:27.134Z,11.00
2019-02-18T05:15:08.879Z,8.53
2019-02-18T05:17:50.450Z,10.00
2019-02-18T05:20:32.219Z,17.33
2019-02-18T05:23:14.176Z,11.80
2019-02-18T05:25:56.146Z,13.97
2019-02-18T05:28:38.460Z,13.47
2019-02-18T05:31:20.800Z,17.67
2019-02-18T05:34:02.606Z,22.53
2019-02-18T05:36:44.402Z,12.47
2019-02-18T05:39:26.310Z,16.83
2019-02-18T05:42:08.149Z,18.40
2019-02-18T05:44:50.147Z,17.50
2019-02-18T05:47:32.215Z,19.03
2019-02-18T05:50:14.141Z,17.57
2019-02-18T05:52:44.514Z,16.50
2019-02-18T05:55:14.850Z,14.63
2019-02-18T05:57:45.314Z,14.77
2019-02-18T06:00:16.352Z,17.93
2019-02-18T06:02:46.594Z,11.70
2019-02-18T06:05:34.582Z,11.27
2019-02-18T06:08:22.584Z,10.43
2019-02-18T06:11:11.935Z,10.63
2019-02-18T06:14:01.334Z,12.50
2019-02-18T06:16:50.661Z,11.33
2019-02-18T06:19:33.448Z,10.17
2019-02-18T06:22:13.926Z,9.63
2019-02-18T06:25:03.335Z,9.87
2019-02-18T06:27:46.582Z,12.53
2019-02-18T06:30:28.305Z,10.23
2019-02-18T06:33:10.662Z,21.10
2019-02-18T06:35:52.623Z,18.33
2019-02-18T06:38:34.428Z,21.57
2019-02-18T06:41:16.138Z,42.47
2019-02-18T06:43:58.362Z,25.43
2019-02-18T06:46:41.622Z,24.73
2019-02-18T06:49:31.858Z,24.07
2019-02-18T06:52:15.422Z,23.57
2019-02-18T06:54:57.095Z,21.33
2019-02-18T06:57:57.902Z,20.63
2019-02-18T07:00:46.485Z,18.93
2019-02-18T07:03:49.214Z,19.10
2019-02-18T07:06:50.215Z,15.97
2019-02-18T07:09:51.729Z,19.00
2019-02-18T07:12:39.750Z,15.70
2019-02-18T07:15:22.758Z,15.80
2019-02-18T07:18:04.519Z,13.10
2019-02-18T07:20:46.310Z,15.87
2019-02-18T07:23:28.674Z,12.57
2019-02-18T07:26:10.574Z,15.93
2019-02-18T07:28:52.515Z,15.07
2019-02-18T07:31:34.579Z,13.43
2019-02-18T07:34:16.988Z,15.07
2019-02-18T07:36:58.902Z,18.37
2019-02-18T07:39:40.750Z,24.27
2019-02-18T07:42:22.558Z,16.83
2019-02-18T07:45:04.343Z,19.03
2019-02-18T07:47:46.210Z,22.30
2019-02-18T07:50:28.269Z,24.60
2019-02-18T07:53:10.227Z,22.30
2019-02-18T07:55:52.194Z,19.43
2019-02-18T07:58:33.814Z,19.60
2019-02-18T08:01:15.651Z,23.20
2019-02-18T08:03:57.383Z,18.57
2019-02-18T08:06:39.662Z,23.50
2019-02-18T08:09:21.563Z,21.30
2019-02-18T08:12:03.495Z,22.03
2019-02-18T08:14:45.374Z,17.23
2019-02-18T08:17:27.318Z,23.73
2019-02-18T08:20:09.123Z,21.43
2019-02-18T08:22:51.198Z,22.43
2019-02-18T08:25:33.379Z,19.47
2019-02-18T08:28:15.268Z,21.37
2019-02-18T08:30:57.002Z,18.87
2019-02-18T08:33:39.179Z,16.60
2019-02-18T08:36:21.103Z,17.20
2019-02-18T08:39:03.626Z,12.23
2019-02-18T08:41:45.859Z,18.90
2019-02-18T08:44:28.103Z,39.67
2019-02-18T08:47:09.906Z,22.67
2019-02-18T08:49:51.798Z,24.03
2019-02-18T08:52:33.788Z,21.90
2019-02-18T08:55:15.854Z,21.10
2019-02-18T08:57:58.202Z,14.97
2019-02-18T09:00:40.802Z,16.10
2019-02-18T09:03:23.188Z,19.57
2019-02-18T09:06:05.067Z,22.50
2019-02-18T09:08:46.913Z,19.23
2019-02-18T09:11:28.714Z,23.87
2019-02-18T09:14:10.775Z,24.17
2019-02-18T09:16:52.806Z,21.33
2019-02-18T09:19:34.554Z,21.23
2019-02-18T09:22:35.376Z,22.90
2019-02-18T09:25:20.110Z,19.90
2019-02-18T09:28:02.346Z,20.47
2019-02-18T09:30:46.786Z,19.90
2019-02-18T09:33:28.633Z,15.17
2019-02-18T09:36:11.031Z,17.07
2019-02-18T09:38:53.290Z,16.23
2019-02-18T09:41:35.306Z,14.30
2019-02-18T09:44:16.986Z,13.77
2019-02-18T09:46:59.183Z,12.50
2019-02-18T09:49:41.485Z,16.00
2019-02-18T09:52:23.258Z,12.43
2019-02-18T09:55:04.928Z,15.87
2019-02-18T09:57:46.838Z,14.73
2019-02-18T10:00:28.606Z,15.10
2019-02-18T10:03:10.898Z,14.77
2019-02-18T10:05:52.705Z,13.23
2019-02-18T10:08:34.926Z,12.77
2019-02-18T10:11:17.203Z,11.10
2019-02-18T10:13:59.079Z,12.27
2019-02-18T10:16:40.906Z,11.93
2019-02-18T10:19:22.813Z,11.17
2019-02-18T10:22:05.002Z,11.80
2019-02-18T10:24:50.658Z,9.07
2019-02-18T10:27:31.358Z,10.93
2019-02-18T10:30:13.354Z,10.80
2019-02-18T10:32:55.258Z,15.40
2019-02-18T10:35:37.174Z,10.47
2019-02-18T10:38:19.253Z,12.00
2019-02-18T10:41:06.975Z,10.13
2019-02-18T10:43:44.678Z,10.63
2019-02-18T10:46:26.799Z,8.63
2019-02-18T10:49:19.379Z,8.40
2019-02-18T10:51:53.053Z,11.07
2019-02-18T10:54:34.845Z,8.47
2019-02-18T10:57:17.318Z,8.73
2019-02-18T10:59:59.419Z,10.40
2019-02-18T11:02:41.318Z,11.93
2019-02-18T11:05:23.094Z,11.73
2019-02-18T11:08:04.786Z,12.00
2019-02-18T11:10:46.486Z,10.30
2019-02-18T11:13:28.818Z,13.97
2019-02-18T11:16:10.634Z,8.83
2019-02-18T11:18:52.859Z,8.03
2019-02-18T11:21:34.940Z,12.10
2019-02-18T11:24:15.452Z,11.13
2019-02-18T11:27:04.871Z,8.43
2019-02-18T11:29:48.562Z,11.27
2019-02-18T11:32:31.172Z,9.20
2019-02-18T11:35:13.568Z,9.13
2019-02-18T11:37:55.766Z,10.07
2019-02-18T11:40:37.899Z,13.57
2019-02-18T11:43:20.159Z,14.13
2019-02-18T11:46:01.874Z,9.10
2019-02-18T11:48:43.890Z,10.83
2019-02-18T11:51:25.626Z,8.83
2019-02-18T11:54:07.502Z,10.27
2019-02-18T11:56:48.186Z,22.40
2019-02-18T11:59:37.610Z,14.53
2019-02-18T12:02:21.507Z,13.53
2019-02-18T12:05:04.920Z,11.07
2019-02-18T12:07:46.634Z,12.00
2019-02-18T12:10:29.365Z,15.27
2019-02-18T12:13:11.385Z,8.53
2019-02-18T12:15:53.808Z,12.33
2019-02-18T12:18:35.660Z,10.93
2019-02-18T12:21:19.302Z,10.53
2019-02-18T12:24:01.067Z,10.23
2019-02-18T12:26:43.911Z,10.73
2019-02-18T12:29:27.258Z,12.57
2019-02-18T12:32:09.195Z,8.43
2019-02-18T12:34:51.447Z,9.97
2019-02-18T12:37:33.559Z,10.37
2019-02-18T12:40:16.026Z,13.03
2019-02-18T12:42:58.149Z,11.47
2019-02-18T12:45:40.299Z,14.13
2019-02-18T12:48:22.051Z,11.43
2019-02-18T12:51:03.888Z,13.03
2019-02-18T12:53:46.516Z,9.73
2019-02-18T12:56:28.756Z,9.30
2019-02-18T12:59:10.794Z,10.57
2019-02-18T13:01:52.570Z,9.97
2019-02-18T13:04:34.934Z,10.77
2019-02-18T13:07:17.134Z,10.87
2019-02-18T13:09:59.007Z,14.27
2019-02-18T13:12:40.731Z,8.90
2019-02-18T13:15:22.382Z,9.13
2019-02-18T13:20:49.548Z,9.33
2019-02-18T13:23:31.807Z,8.43
2019-02-18T13:26:14.061Z,9.40
2019-02-18T13:28:55.763Z,10.20
2019-02-18T13:31:37.954Z,10.63
2019-02-18T13:34:20.229Z,11.17
2019-02-18T13:37:01.922Z,12.47
2019-02-18T13:39:43.661Z,9.30
2019-02-18T13:42:33.010Z,11.00
2019-02-18T13:45:22.502Z,9.23
2019-02-18T13:48:04.680Z,12.87
2019-02-18T13:50:46.474Z,10.73
2019-02-18T13:53:28.162Z,10.77
2019-02-18T13:56:09.955Z,11.33
2019-02-18T13:58:52.122Z,12.43
2019-02-18T14:01:34.450Z,9.30
2019-02-18T14:04:16.728Z,7.37
2019-02-18T14:06:59.190Z,15.57
2019-02-18T14:09:41.470Z,11.33
2019-02-18T14:12:23.234Z,8.43
2019-02-18T14:15:05.974Z,11.37
2019-02-18T14:17:48.357Z,11.13
2019-02-18T14:20:30.535Z,9.93
2019-02-18T14:23:13.476Z,10.40
2019-02-18T14:25:55.332Z,9.27
2019-02-18T14:28:37.652Z,9.43
2019-02-18T14:31:19.919Z,15.23
2019-02-18T14:34:02.164Z,15.83
2019-02-18T14:36:44.334Z,11.63
2019-02-18T14:39:27.372Z,11.63
2019-02-18T14:42:09.314Z,12.33
2019-02-18T14:44:51.896Z,10.20
2019-02-18T14:47:32.465Z,13.93
2019-02-18T14:50:21.890Z,14.87
2019-02-18T14:53:14.447Z,16.03
2019-02-18T14:55:56.453Z,10.57
2019-02-18T14:58:38.470Z,11.87
2019-02-18T15:01:20.389Z,8.90
2019-02-18T15:04:02.574Z,12.30
2019-02-18T15:06:45.047Z,13.47
2019-02-18T15:09:27.344Z,9.77
2019-02-18T15:12:09.234Z,9.67
2019-02-18T15:14:51.615Z,9.63
2019-02-18T15:17:35.294Z,10.60
2019-02-18T15:20:18.924Z,9.93
2019-02-18T15:23:01.518Z,12.03
2019-02-18T15:25:43.738Z,11.93
2019-02-18T15:28:33.138Z,11.50
2019-02-18T15:31:24.030Z,9.63
2019-02-18T15:34:07.386Z,12.53
2019-02-18T15:36:49.207Z,8.53
2019-02-18T15:39:31.473Z,13.00
2019-02-18T15:42:13.375Z,10.27
2019-02-18T15:44:55.658Z,12.33
2019-02-18T15:47:37.446Z,13.17
2019-02-18T15:50:19.787Z,14.57
2019-02-18T15:53:01.730Z,12.20
2019-02-18T15:55:44.041Z,16.60
2019-02-18T15:58:26.319Z,14.13
2019-02-18T16:01:08.579Z,15.93
2019-02-18T16:03:50.503Z,12.57
2019-02-18T16:06:32.290Z,11.13
2019-02-18T16:09:14.553Z,16.60
2019-02-18T16:11:56.950Z,38.77
2019-02-18T16:14:39.677Z,55.00
2019-02-18T16:17:22.126Z,41.07
2019-02-18T16:20:03.870Z,45.17
2019-02-18T16:22:45.866Z,47.40
2019-02-18T16:25:28.270Z,47.60
2019-02-18T16:28:10.729Z,53.77
2019-02-18T16:30:53.394Z,52.47
2019-02-18T16:33:35.658Z,41.30
2019-02-18T16:36:18.243Z,33.03
2019-02-18T16:39:00.254Z,34.97
2019-02-18T16:41:42.075Z,27.47
2019-02-18T16:44:24.603Z,28.03
2019-02-18T16:47:07.030Z,28.70
2019-02-18T16:49:49.230Z,23.77
2019-02-18T16:52:31.082Z,36.17
2019-02-18T16:55:12.807Z,31.40
2019-02-18T16:57:55.074Z,65.40
2019-02-18T17:00:37.234Z,47.43
2019-02-18T17:03:19.495Z,51.93
2019-02-18T17:06:01.394Z,47.63
2019-02-18T17:08:43.169Z,32.10
2019-02-18T17:11:25.262Z,26.80
2019-02-18T17:14:07.238Z,31.60
2019-02-18T17:16:49.263Z,45.47
2019-02-18T17:19:31.189Z,58.53
2019-02-18T17:22:13.566Z,55.27
2019-02-18T17:24:56.179Z,39.60
2019-02-18T17:27:38.582Z,36.17
2019-02-18T17:30:20.957Z,37.50
2019-02-18T17:33:03.091Z,41.07
2019-02-18T17:35:45.416Z,32.30
2019-02-18T17:38:27.844Z,27.83
2019-02-18T17:41:10.051Z,33.40
2019-02-18T17:43:52.054Z,29.27
2019-02-18T17:46:33.718Z,39.83
2019-02-18T17:49:15.622Z,68.93
2019-02-18T17:51:57.618Z,216.63
2019-02-18T17:54:39.630Z,227.70
2019-02-18T17:57:21.665Z,75.70
2019-02-18T18:00:03.931Z,79.67
2019-02-18T18:02:45.806Z,101.47
2019-02-18T18:05:28.051Z,39.80
2019-02-18T18:08:14.899Z,31.13
2019-02-18T18:10:58.649Z,31.23
2019-02-18T18:13:40.473Z,31.70
2019-02-18T18:16:22.358Z,39.20
2019-02-18T18:19:09.301Z,41.23
2019-02-18T18:21:48.326Z,39.90
2019-02-18T18:24:30.746Z,34.17
2019-02-18T18:27:12.564Z,35.53
2019-02-18T18:29:54.566Z,32.00
2019-02-18T18:32:36.779Z,32.47
2019-02-18T18:35:18.534Z,36.57
2019-02-18T18:38:00.755Z,43.33
2019-02-18T18:40:43.099Z,39.67
2019-02-18T18:43:33.404Z,60.20
2019-02-18T18:46:08.382Z,59.13
2019-02-18T18:48:50.344Z,47.00
2019-02-18T18:51:32.101Z,46.07
2019-02-18T18:54:13.916Z,43.10
2019-02-18T18:56:56.320Z,38.43
2019-02-18T18:59:39.309Z,45.63
2019-02-18T19:02:21.086Z,42.70
2019-02-18T19:05:02.903Z,41.33
2019-02-18T19:07:44.950Z,30.77
2019-02-18T19:10:27.076Z,23.20
2019-02-18T19:13:10.843Z,25.57
2019-02-18T19:15:53.145Z,28.10
2019-02-18T19:18:34.982Z,26.73
2019-02-18T19:21:17.047Z,27.80
2019-02-18T19:23:58.842Z,28.83
2019-02-18T19:26:40.918Z,25.03
2019-02-18T19:29:23.171Z,23.00
2019-02-18T19:32:05.299Z,26.30
2019-02-18T19:34:47.062Z,29.57
2019-02-18T19:37:29.198Z,26.73
2019-02-18T19:40:10.846Z,21.57
2019-02-18T19:42:52.786Z,25.50
2019-02-18T19:45:34.984Z,20.57
2019-02-18T19:48:16.871Z,25.27
2019-02-18T19:50:58.709Z,26.27
2019-02-18T19:53:41.266Z,22.00
2019-02-18T19:56:23.185Z,17.50
2019-02-18T19:59:04.944Z,26.70
2019-02-18T20:01:46.937Z,25.83
2019-02-18T20:04:28.851Z,26.90
2019-02-18T20:07:11.094Z,22.83
2019-02-18T20:09:53.310Z,17.80
2019-02-18T20:12:35.822Z,18.83
2019-02-18T20:15:17.654Z,161.03
2019-02-18T20:17:59.510Z,41.03
2019-02-18T20:20:41.555Z,37.90
2019-02-18T20:23:23.781Z,45.93
2019-02-18T20:26:06.017Z,49.57
2019-02-18T20:28:48.102Z,41.47
2019-02-18T20:31:30.567Z,36.17
2019-02-18T20:34:13.133Z,35.70
2019-02-18T20:36:55.427Z,31.30
2019-02-18T20:39:38.362Z,23.00
2019-02-18T20:42:21.099Z,27.87
2019-02-18T20:44:52.897Z,33.93
2019-02-18T20:47:23.350Z,26.67
2019-02-18T20:49:53.673Z,24.57
2019-02-18T20:52:24.041Z,25.93
2019-02-18T20:54:54.402Z,28.73
2019-02-18T20:57:24.883Z,29.50
2019-02-18T20:59:55.538Z,25.40
2019-02-18T21:02:26.037Z,28.37
2019-02-18T21:04:56.431Z,29.00
2019-02-18T21:07:26.885Z,23.13
2019-02-18T21:09:57.242Z,19.70
2019-02-18T21:12:29.078Z,23.20
2019-02-18T21:14:59.662Z,25.23
2019-02-18T21:17:29.987Z,26.83
2019-02-18T21:20:00.372Z,31.07
2019-02-18T21:22:31.043Z,29.63
2019-02-18T21:25:01.444Z,30.50
2019-02-18T21:27:31.986Z,28.73
2019-02-18T21:30:02.357Z,26.67
2019-02-18T21:32:32.617Z,29.20
2019-02-18T21:35:03.190Z,32.43
2019-02-18T21:37:33.618Z,44.97
2019-02-18T21:40:04.420Z,39.57
2019-02-18T21:42:34.846Z,35.00
2019-02-18T21:45:05.422Z,27.70
2019-02-18T21:47:35.817Z,26.83
2019-02-18T21:50:06.390Z,23.93
2019-02-18T21:52:36.786Z,25.37
2019-02-18T21:55:07.182Z,24.67
2019-02-18T21:57:37.549Z,26.00
2019-02-18T22:00:15.514Z,27.77
2019-02-18T22:02:45.877Z,38.87
2019-02-18T22:05:16.453Z,36.40
2019-02-18T22:07:46.810Z,112.33
2019-02-18T22:10:17.186Z,65.03
2019-02-18T22:12:47.522Z,45.63
2019-02-18T22:15:17.893Z,51.90
2019-02-18T22:17:48.186Z,44.33
2019-02-18T22:20:18.841Z,36.40
2019-02-18T22:22:49.198Z,31.23
2019-02-18T22:25:19.621Z,29.60
2019-02-18T22:27:49.989Z,25.73
2019-02-18T22:30:20.355Z,25.33
2019-02-18T22:32:50.724Z,28.93
2019-02-18T22:35:21.173Z,32.77
2019-02-18T22:37:51.530Z,32.50
2019-02-18T22:40:21.870Z,34.77
2019-02-18T22:42:52.230Z,29.67
2019-02-18T22:45:22.577Z,29.50
2019-02-18T22:47:52.858Z,30.77
2019-02-18T22:50:23.218Z,32.60
2019-02-18T22:52:53.565Z,32.03
2019-02-18T22:55:23.949Z,30.37
2019-02-18T22:57:54.299Z,27.43
2019-02-18T23:00:45.803Z,31.27
2019-02-18T23:03:16.045Z,36.23
2019-02-18T23:05:46.397Z,30.60
2019-02-18T23:08:16.754Z,24.37
2019-02-18T23:10:47.525Z,23.63
2019-02-18T23:13:18.191Z,19.57
2019-02-18T23:15:48.537Z,19.47
2019-02-18T23:18:18.903Z,23.77
2019-02-18T23:20:49.250Z,23.07
2019-02-18T23:23:19.611Z,23.97
2019-02-18T23:25:49.978Z,35.77
2019-02-18T23:28:20.635Z,81.67
2019-02-18T23:30:50.995Z,75.77
2019-02-18T23:33:21.398Z,34.23
2019-02-18T23:35:51.745Z,60.47
2019-02-18T23:38:22.093Z,38.33
2019-02-18T23:40:52.373Z,61.03
2019-02-18T23:43:22.671Z,37.63
2019-02-18T23:45:53.012Z,46.00
2019-02-18T23:48:23.358Z,22.70
2019-02-18T23:50:53.630Z,21.17
2019-02-18T23:53:23.922Z,20.80
2019-02-18T23:55:54.209Z,21.60
2019-02-18T23:58:24.573Z,20.07
